sensor_id;sensor_type;location;lat;lon;timestamp;P1;durP1;ratioP1;P2;durP2;ratioP2
4756;SDS011;2392;52.578;13.426;2023-12-22T00:02:14;24.80;;;5.23;;
4756;SDS011;2392;52.578;13.426;2023-12-22T00:04:40;21.13;;;4.93;;
4756;SDS011;2392;52.578;13.426;2023-12-22T00:07:07;18.80;;;4.80;;
4756;SDS011;2392;52.578;13.426;2023-12-22T00:09:34;25.83;;;5.27;;
4756;SDS011;2392;52.578;13.426;2023-12-22T00:12:00;26.33;;;4.90;;
4756;SDS011;2392;52.578;13.426;2023-12-22T00:14:27;22.90;;;5.20;;
4756;SDS011;2392;52.578;13.426;2023-12-22T00:16:54;23.33;;;5.20;;
4756;SDS011;2392;52.578;13.426;2023-12-22T00:19:22;17.83;;;4.50;;
4756;SDS011;2392;52.578;13.426;2023-12-22T00:21:48;24.33;;;4.97;;
4756;SDS011;2392;52.578;13.426;2023-12-22T00:24:15;21.73;;;5.07;;
4756;SDS011;2392;52.578;13.426;2023-12-22T00:26:42;29.27;;;4.90;;
4756;SDS011;2392;52.578;13.426;2023-12-22T00:29:08;22.73;;;4.97;;
4756;SDS011;2392;52.578;13.426;2023-12-22T00:31:35;23.00;;;4.80;;
4756;SDS011;2392;52.578;13.426;2023-12-22T00:34:02;27.43;;;4.53;;
4756;SDS011;2392;52.578;13.426;2023-12-22T00:36:30;27.60;;;4.90;;
4756;SDS011;2392;52.578;13.426;2023-12-22T00:38:57;28.23;;;4.90;;
4756;SDS011;2392;52.578;13.426;2023-12-22T00:41:23;22.70;;;6.00;;
4756;SDS011;2392;52.578;13.426;2023-12-22T00:43:50;30.20;;;5.20;;
4756;SDS011;2392;52.578;13.426;2023-12-22T00:46:17;33.80;;;5.07;;
4756;SDS011;2392;52.578;13.426;2023-12-22T00:48:45;23.77;;;5.47;;
4756;SDS011;2392;52.578;13.426;2023-12-22T00:51:12;33.47;;;5.50;;
4756;SDS011;2392;52.578;13.426;2023-12-22T00:53:40;26.00;;;4.93;;
4756;SDS011;2392;52.578;13.426;2023-12-22T00:56:06;28.30;;;5.90;;
4756;SDS011;2392;52.578;13.426;2023-12-22T00:58:33;25.37;;;5.93;;
4756;SDS011;2392;52.578;13.426;2023-12-22T01:01:00;25.50;;;5.73;;
4756;SDS011;2392;52.578;13.426;2023-12-22T01:03:27;29.70;;;6.43;;
4756;SDS011;2392;52.578;13.426;2023-12-22T01:05:53;30.97;;;5.47;;
4756;SDS011;2392;52.578;13.426;2023-12-22T01:08:20;21.93;;;5.30;;
4756;SDS011;2392;52.578;13.426;2023-12-22T01:10:48;19.30;;;5.20;;
4756;SDS011;2392;52.578;13.426;2023-12-22T01:13:15;21.73;;;4.50;;
4756;SDS011;2392;52.578;13.426;2023-12-22T01:15:42;23.00;;;5.40;;
4756;SDS011;2392;52.578;13.426;2023-12-22T01:18:09;24.93;;;4.93;;
4756;SDS011;2392;52.578;13.426;2023-12-22T01:20:36;26.40;;;5.07;;
4756;SDS011;2392;52.578;13.426;2023-12-22T01:23:03;27.87;;;6.03;;
4756;SDS011;2392;52.578;13.426;2023-12-22T01:25:30;38.50;;;6.10;;
4756;SDS011;2392;52.578;13.426;2023-12-22T01:27:58;41.73;;;6.43;;
4756;SDS011;2392;52.578;13.426;2023-12-22T01:30:24;23.23;;;5.30;;
4756;SDS011;2392;52.578;13.426;2023-12-22T01:32:51;37.30;;;6.40;;
4756;SDS011;2392;52.578;13.426;2023-12-22T01:35:18;28.47;;;5.60;;
4756;SDS011;2392;52.578;13.426;2023-12-22T01:37:45;36.47;;;6.10;;
4756;SDS011;2392;52.578;13.426;2023-12-22T01:40:13;22.57;;;5.77;;
4756;SDS011;2392;52.578;13.426;2023-12-22T01:42:39;21.50;;;5.47;;
4756;SDS011;2392;52.578;13.426;2023-12-22T01:45:08;25.30;;;5.07;;
4756;SDS011;2392;52.578;13.426;2023-12-22T01:47:36;25.33;;;5.40;;
4756;SDS011;2392;52.578;13.426;2023-12-22T01:50:03;27.40;;;5.97;;
4756;SDS011;2392;52.578;13.426;2023-12-22T01:52:31;26.20;;;6.80;;
4756;SDS011;2392;52.578;13.426;2023-12-22T01:54:58;23.23;;;5.43;;
4756;SDS011;2392;52.578;13.426;2023-12-22T01:57:24;24.40;;;5.20;;
4756;SDS011;2392;52.578;13.426;2023-12-22T01:59:51;30.60;;;5.47;;
4756;SDS011;2392;52.578;13.426;2023-12-22T02:02:19;26.03;;;4.90;;
4756;SDS011;2392;52.578;13.426;2023-12-22T02:04:46;25.03;;;5.87;;
4756;SDS011;2392;52.578;13.426;2023-12-22T02:07:13;21.73;;;5.37;;
4756;SDS011;2392;52.578;13.426;2023-12-22T02:09:40;24.00;;;4.93;;
4756;SDS011;2392;52.578;13.426;2023-12-22T02:12:06;22.67;;;5.40;;
4756;SDS011;2392;52.578;13.426;2023-12-22T02:14:33;28.90;;;5.83;;
4756;SDS011;2392;52.578;13.426;2023-12-22T02:17:02;25.40;;;5.47;;
4756;SDS011;2392;52.578;13.426;2023-12-22T02:19:44;22.33;;;4.53;;
4756;SDS011;2392;52.578;13.426;2023-12-22T02:22:12;30.27;;;6.10;;
4756;SDS011;2392;52.578;13.426;2023-12-22T02:24:40;25.10;;;5.77;;
4756;SDS011;2392;52.578;13.426;2023-12-22T02:27:10;25.73;;;5.57;;
4756;SDS011;2392;52.578;13.426;2023-12-22T02:29:48;28.30;;;5.57;;
4756;SDS011;2392;52.578;13.426;2023-12-22T02:32:21;26.23;;;5.50;;
4756;SDS011;2392;52.578;13.426;2023-12-22T02:34:51;27.70;;;6.67;;
4756;SDS011;2392;52.578;13.426;2023-12-22T02:37:19;31.37;;;6.23;;
4756;SDS011;2392;52.578;13.426;2023-12-22T02:39:49;30.57;;;5.77;;
4756;SDS011;2392;52.578;13.426;2023-12-22T02:42:18;26.13;;;5.37;;
4756;SDS011;2392;52.578;13.426;2023-12-22T02:44:48;23.10;;;5.20;;
4756;SDS011;2392;52.578;13.426;2023-12-22T02:47:15;25.83;;;5.20;;
4756;SDS011;2392;52.578;13.426;2023-12-22T02:49:42;23.07;;;5.10;;
4756;SDS011;2392;52.578;13.426;2023-12-22T02:52:08;21.87;;;5.10;;
4756;SDS011;2392;52.578;13.426;2023-12-22T02:54:35;26.00;;;4.50;;
4756;SDS011;2392;52.578;13.426;2023-12-22T02:57:06;27.50;;;5.40;;
4756;SDS011;2392;52.578;13.426;2023-12-22T02:59:33;24.13;;;6.40;;
4756;SDS011;2392;52.578;13.426;2023-12-22T03:01:59;24.70;;;5.00;;
4756;SDS011;2392;52.578;13.426;2023-12-22T03:04:26;24.97;;;5.27;;
4756;SDS011;2392;52.578;13.426;2023-12-22T03:06:53;26.50;;;5.03;;
4756;SDS011;2392;52.578;13.426;2023-12-22T03:09:19;24.23;;;5.50;;
4756;SDS011;2392;52.578;13.426;2023-12-22T03:11:46;25.43;;;5.17;;
4756;SDS011;2392;52.578;13.426;2023-12-22T03:14:14;24.37;;;5.30;;
4756;SDS011;2392;52.578;13.426;2023-12-22T03:16:41;19.43;;;4.67;;
4756;SDS011;2392;52.578;13.426;2023-12-22T03:19:08;23.23;;;4.50;;
4756;SDS011;2392;52.578;13.426;2023-12-22T03:21:34;18.47;;;5.00;;
4756;SDS011;2392;52.578;13.426;2023-12-22T03:24:01;21.27;;;4.70;;
4756;SDS011;2392;52.578;13.426;2023-12-22T03:26:28;19.00;;;4.70;;
4756;SDS011;2392;52.578;13.426;2023-12-22T03:28:54;22.73;;;4.53;;
4756;SDS011;2392;52.578;13.426;2023-12-22T03:31:22;22.10;;;4.47;;
4756;SDS011;2392;52.578;13.426;2023-12-22T03:33:49;22.30;;;4.80;;
4756;SDS011;2392;52.578;13.426;2023-12-22T03:36:15;19.80;;;4.80;;
4756;SDS011;2392;52.578;13.426;2023-12-22T03:38:42;26.30;;;4.63;;
4756;SDS011;2392;52.578;13.426;2023-12-22T03:41:08;23.63;;;5.50;;
4756;SDS011;2392;52.578;13.426;2023-12-22T03:43:35;23.53;;;4.93;;
4756;SDS011;2392;52.578;13.426;2023-12-22T03:46:02;23.23;;;4.80;;
4756;SDS011;2392;52.578;13.426;2023-12-22T03:48:30;18.90;;;4.27;;
4756;SDS011;2392;52.578;13.426;2023-12-22T03:50:57;22.40;;;4.83;;
4756;SDS011;2392;52.578;13.426;2023-12-22T03:53:23;25.43;;;6.30;;
4756;SDS011;2392;52.578;13.426;2023-12-22T03:55:50;22.83;;;5.43;;
4756;SDS011;2392;52.578;13.426;2023-12-22T03:58:16;22.87;;;5.20;;
4756;SDS011;2392;52.578;13.426;2023-12-22T04:00:43;24.17;;;5.50;;
4756;SDS011;2392;52.578;13.426;2023-12-22T04:03:09;31.40;;;7.30;;
4756;SDS011;2392;52.578;13.426;2023-12-22T04:05:37;18.10;;;4.80;;
4756;SDS011;2392;52.578;13.426;2023-12-22T04:08:05;28.33;;;5.00;;
4756;SDS011;2392;52.578;13.426;2023-12-22T04:10:32;23.77;;;4.60;;
4756;SDS011;2392;52.578;13.426;2023-12-22T04:12:58;18.63;;;4.47;;
4756;SDS011;2392;52.578;13.426;2023-12-22T04:15:25;18.57;;;3.50;;
4756;SDS011;2392;52.578;13.426;2023-12-22T04:17:52;20.77;;;4.47;;
4756;SDS011;2392;52.578;13.426;2023-12-22T04:20:18;19.50;;;4.17;;
4756;SDS011;2392;52.578;13.426;2023-12-22T04:22:46;19.67;;;4.03;;
4756;SDS011;2392;52.578;13.426;2023-12-22T04:25:13;20.73;;;4.00;;
4756;SDS011;2392;52.578;13.426;2023-12-22T04:27:40;18.53;;;4.07;;
4756;SDS011;2392;52.578;13.426;2023-12-22T04:30:07;18.07;;;4.00;;
4756;SDS011;2392;52.578;13.426;2023-12-22T04:32:34;23.40;;;4.37;;
4756;SDS011;2392;52.578;13.426;2023-12-22T04:35:01;18.40;;;4.57;;
4756;SDS011;2392;52.578;13.426;2023-12-22T04:37:28;20.40;;;4.33;;
4756;SDS011;2392;52.578;13.426;2023-12-22T04:39:56;16.53;;;4.00;;
4756;SDS011;2392;52.578;13.426;2023-12-22T04:42:23;21.80;;;3.70;;
4756;SDS011;2392;52.578;13.426;2023-12-22T04:44:50;18.63;;;4.00;;
4756;SDS011;2392;52.578;13.426;2023-12-22T04:47:17;16.00;;;3.70;;
4756;SDS011;2392;52.578;13.426;2023-12-22T04:49:43;21.23;;;4.47;;
4756;SDS011;2392;52.578;13.426;2023-12-22T04:52:10;20.10;;;4.33;;
4756;SDS011;2392;52.578;13.426;2023-12-22T04:54:37;18.33;;;4.70;;
4756;SDS011;2392;52.578;13.426;2023-12-22T04:57:05;20.07;;;4.63;;
4756;SDS011;2392;52.578;13.426;2023-12-22T04:59:31;17.00;;;3.70;;
4756;SDS011;2392;52.578;13.426;2023-12-22T05:01:58;16.30;;;3.80;;
4756;SDS011;2392;52.578;13.426;2023-12-22T05:04:25;23.23;;;4.03;;
4756;SDS011;2392;52.578;13.426;2023-12-22T05:06:52;19.63;;;4.87;;
4756;SDS011;2392;52.578;13.426;2023-12-22T05:09:19;19.10;;;4.10;;
4756;SDS011;2392;52.578;13.426;2023-12-22T05:11:46;17.13;;;4.13;;
4756;SDS011;2392;52.578;13.426;2023-12-22T05:14:13;18.20;;;4.47;;
4756;SDS011;2392;52.578;13.426;2023-12-22T05:16:40;16.00;;;3.70;;
4756;SDS011;2392;52.578;13.426;2023-12-22T05:19:07;17.50;;;3.97;;
4756;SDS011;2392;52.578;13.426;2023-12-22T05:21:34;15.90;;;3.70;;
4756;SDS011;2392;52.578;13.426;2023-12-22T05:24:00;16.83;;;3.90;;
4756;SDS011;2392;52.578;13.426;2023-12-22T05:26:27;17.60;;;4.10;;
4756;SDS011;2392;52.578;13.426;2023-12-22T05:28:55;16.17;;;3.60;;
4756;SDS011;2392;52.578;13.426;2023-12-22T05:31:23;17.57;;;3.20;;
4756;SDS011;2392;52.578;13.426;2023-12-22T05:33:50;16.73;;;3.57;;
4756;SDS011;2392;52.578;13.426;2023-12-22T05:36:17;17.40;;;3.80;;
4756;SDS011;2392;52.578;13.426;2023-12-22T05:38:43;18.50;;;3.97;;
4756;SDS011;2392;52.578;13.426;2023-12-22T05:41:10;16.80;;;4.27;;
4756;SDS011;2392;52.578;13.426;2023-12-22T05:43:37;22.90;;;3.77;;
4756;SDS011;2392;52.578;13.426;2023-12-22T05:46:04;17.27;;;4.00;;
4756;SDS011;2392;52.578;13.426;2023-12-22T05:48:31;16.90;;;3.63;;
4756;SDS011;2392;52.578;13.426;2023-12-22T05:51:00;17.73;;;4.00;;
4756;SDS011;2392;52.578;13.426;2023-12-22T05:53:28;18.13;;;4.17;;
4756;SDS011;2392;52.578;13.426;2023-12-22T05:55:54;16.87;;;3.90;;
4756;SDS011;2392;52.578;13.426;2023-12-22T05:58:21;18.60;;;3.93;;
4756;SDS011;2392;52.578;13.426;2023-12-22T06:00:48;16.90;;;4.23;;
4756;SDS011;2392;52.578;13.426;2023-12-22T06:03:15;17.60;;;4.20;;
4756;SDS011;2392;52.578;13.426;2023-12-22T06:05:43;18.73;;;4.00;;
4756;SDS011;2392;52.578;13.426;2023-12-22T06:08:09;20.17;;;4.17;;
4756;SDS011;2392;52.578;13.426;2023-12-22T06:10:36;21.40;;;3.83;;
4756;SDS011;2392;52.578;13.426;2023-12-22T06:13:03;19.13;;;3.90;;
4756;SDS011;2392;52.578;13.426;2023-12-22T06:15:30;20.97;;;3.80;;
4756;SDS011;2392;52.578;13.426;2023-12-22T06:17:57;17.43;;;4.10;;
4756;SDS011;2392;52.578;13.426;2023-12-22T06:20:24;17.97;;;3.80;;
4756;SDS011;2392;52.578;13.426;2023-12-22T06:22:52;26.40;;;4.73;;
4756;SDS011;2392;52.578;13.426;2023-12-22T06:25:19;29.20;;;4.90;;
4756;SDS011;2392;52.578;13.426;2023-12-22T06:27:46;21.27;;;4.10;;
4756;SDS011;2392;52.578;13.426;2023-12-22T06:30:13;19.83;;;4.17;;
4756;SDS011;2392;52.578;13.426;2023-12-22T06:32:39;20.67;;;4.47;;
4756;SDS011;2392;52.578;13.426;2023-12-22T06:35:07;19.60;;;3.80;;
4756;SDS011;2392;52.578;13.426;2023-12-22T06:37:35;23.70;;;4.23;;
4756;SDS011;2392;52.578;13.426;2023-12-22T06:40:04;16.60;;;4.00;;
4756;SDS011;2392;52.578;13.426;2023-12-22T06:42:31;21.20;;;4.40;;
4756;SDS011;2392;52.578;13.426;2023-12-22T06:44:58;21.43;;;4.00;;
4756;SDS011;2392;52.578;13.426;2023-12-22T06:47:25;19.00;;;4.23;;
4756;SDS011;2392;52.578;13.426;2023-12-22T06:49:52;16.93;;;3.67;;
4756;SDS011;2392;52.578;13.426;2023-12-22T06:52:18;17.60;;;4.30;;
4756;SDS011;2392;52.578;13.426;2023-12-22T06:54:45;17.90;;;4.50;;
4756;SDS011;2392;52.578;13.426;2023-12-22T06:57:13;18.37;;;3.97;;
4756;SDS011;2392;52.578;13.426;2023-12-22T06:59:41;16.43;;;3.83;;
4756;SDS011;2392;52.578;13.426;2023-12-22T07:02:08;16.00;;;3.60;;
4756;SDS011;2392;52.578;13.426;2023-12-22T07:07:46;22.77;;;4.50;;
4756;SDS011;2392;52.578;13.426;2023-12-22T07:10:12;16.60;;;4.30;;
4756;SDS011;2392;52.578;13.426;2023-12-22T07:12:40;17.90;;;3.90;;
4756;SDS011;2392;52.578;13.426;2023-12-22T07:15:07;17.67;;;3.70;;
4756;SDS011;2392;52.578;13.426;2023-12-22T07:17:34;17.77;;;4.33;;
4756;SDS011;2392;52.578;13.426;2023-12-22T07:20:01;18.40;;;4.47;;
4756;SDS011;2392;52.578;13.426;2023-12-22T07:22:29;18.77;;;4.33;;
4756;SDS011;2392;52.578;13.426;2023-12-22T07:24:55;18.90;;;3.93;;
4756;SDS011;2392;52.578;13.426;2023-12-22T07:27:22;20.50;;;4.43;;
4756;SDS011;2392;52.578;13.426;2023-12-22T07:29:50;27.27;;;3.90;;
4756;SDS011;2392;52.578;13.426;2023-12-22T07:32:17;21.77;;;4.23;;
4756;SDS011;2392;52.578;13.426;2023-12-22T07:34:44;21.13;;;4.40;;
4756;SDS011;2392;52.578;13.426;2023-12-22T07:37:12;21.57;;;4.93;;
4756;SDS011;2392;52.578;13.426;2023-12-22T07:39:39;20.60;;;4.30;;
4756;SDS011;2392;52.578;13.426;2023-12-22T07:42:07;20.00;;;4.20;;
4756;SDS011;2392;52.578;13.426;2023-12-22T07:44:33;19.93;;;4.20;;
4756;SDS011;2392;52.578;13.426;2023-12-22T07:47:01;34.10;;;4.30;;
4756;SDS011;2392;52.578;13.426;2023-12-22T07:49:28;23.10;;;4.53;;
4756;SDS011;2392;52.578;13.426;2023-12-22T07:51:55;20.53;;;4.53;;
4756;SDS011;2392;52.578;13.426;2023-12-22T07:54:22;21.60;;;4.43;;
4756;SDS011;2392;52.578;13.426;2023-12-22T07:56:48;19.53;;;4.60;;
4756;SDS011;2392;52.578;13.426;2023-12-22T07:59:15;28.27;;;4.47;;
4756;SDS011;2392;52.578;13.426;2023-12-22T08:01:42;22.93;;;5.17;;
4756;SDS011;2392;52.578;13.426;2023-12-22T08:04:10;17.63;;;4.20;;
4756;SDS011;2392;52.578;13.426;2023-12-22T08:06:37;18.37;;;4.20;;
4756;SDS011;2392;52.578;13.426;2023-12-22T08:09:04;19.90;;;4.20;;
4756;SDS011;2392;52.578;13.426;2023-12-22T08:11:31;18.03;;;4.47;;
4756;SDS011;2392;52.578;13.426;2023-12-22T08:13:57;24.50;;;4.60;;
4756;SDS011;2392;52.578;13.426;2023-12-22T08:16:24;21.33;;;4.40;;
4756;SDS011;2392;52.578;13.426;2023-12-22T08:18:51;20.57;;;4.27;;
4756;SDS011;2392;52.578;13.426;2023-12-22T08:21:19;17.63;;;4.03;;
4756;SDS011;2392;52.578;13.426;2023-12-22T08:23:46;20.43;;;4.17;;
4756;SDS011;2392;52.578;13.426;2023-12-22T08:26:15;17.63;;;4.17;;
4756;SDS011;2392;52.578;13.426;2023-12-22T08:28:44;16.40;;;4.03;;
4756;SDS011;2392;52.578;13.426;2023-12-22T08:31:11;18.93;;;4.27;;
4756;SDS011;2392;52.578;13.426;2023-12-22T08:33:38;22.60;;;4.97;;
4756;SDS011;2392;52.578;13.426;2023-12-22T08:36:08;18.43;;;3.50;;
4756;SDS011;2392;52.578;13.426;2023-12-22T08:38:36;18.17;;;4.20;;
4756;SDS011;2392;52.578;13.426;2023-12-22T08:41:05;17.17;;;4.00;;
4756;SDS011;2392;52.578;13.426;2023-12-22T08:43:33;20.87;;;4.23;;
4756;SDS011;2392;52.578;13.426;2023-12-22T08:46:00;20.27;;;3.97;;
4756;SDS011;2392;52.578;13.426;2023-12-22T08:48:29;31.20;;;4.70;;
4756;SDS011;2392;52.578;13.426;2023-12-22T08:50:56;19.73;;;4.60;;
4756;SDS011;2392;52.578;13.426;2023-12-22T08:53:23;21.10;;;4.77;;
4756;SDS011;2392;52.578;13.426;2023-12-22T08:55:56;21.77;;;4.60;;
4756;SDS011;2392;52.578;13.426;2023-12-22T08:58:25;18.40;;;4.33;;
4756;SDS011;2392;52.578;13.426;2023-12-22T09:00:55;16.50;;;4.03;;
4756;SDS011;2392;52.578;13.426;2023-12-22T09:03:21;22.00;;;4.50;;
4756;SDS011;2392;52.578;13.426;2023-12-22T09:05:49;24.60;;;4.57;;
4756;SDS011;2392;52.578;13.426;2023-12-22T09:08:15;17.23;;;4.13;;
4756;SDS011;2392;52.578;13.426;2023-12-22T09:10:45;20.30;;;4.80;;
4756;SDS011;2392;52.578;13.426;2023-12-22T09:13:14;27.30;;;4.50;;
4756;SDS011;2392;52.578;13.426;2023-12-22T09:15:40;22.63;;;6.10;;
4756;SDS011;2392;52.578;13.426;2023-12-22T09:18:11;23.20;;;4.03;;
4756;SDS011;2392;52.578;13.426;2023-12-22T09:20:39;17.17;;;4.50;;
4756;SDS011;2392;52.578;13.426;2023-12-22T09:23:06;19.60;;;4.60;;
4756;SDS011;2392;52.578;13.426;2023-12-22T09:25:35;21.30;;;4.57;;
4756;SDS011;2392;52.578;13.426;2023-12-22T09:28:03;21.63;;;4.90;;
4756;SDS011;2392;52.578;13.426;2023-12-22T09:30:32;21.53;;;5.80;;
4756;SDS011;2392;52.578;13.426;2023-12-22T09:32:59;22.60;;;4.73;;
4756;SDS011;2392;52.578;13.426;2023-12-22T09:35:27;27.60;;;5.30;;
4756;SDS011;2392;52.578;13.426;2023-12-22T09:37:56;20.90;;;4.30;;
4756;SDS011;2392;52.578;13.426;2023-12-22T09:40:23;21.20;;;5.23;;
4756;SDS011;2392;52.578;13.426;2023-12-22T09:42:50;21.47;;;4.67;;
4756;SDS011;2392;52.578;13.426;2023-12-22T09:45:21;20.17;;;5.00;;
4756;SDS011;2392;52.578;13.426;2023-12-22T09:47:52;23.70;;;4.37;;
4756;SDS011;2392;52.578;13.426;2023-12-22T09:50:20;24.50;;;5.00;;
4756;SDS011;2392;52.578;13.426;2023-12-22T09:52:48;22.17;;;4.60;;
4756;SDS011;2392;52.578;13.426;2023-12-22T09:55:14;24.43;;;4.53;;
4756;SDS011;2392;52.578;13.426;2023-12-22T09:57:42;21.03;;;4.40;;
4756;SDS011;2392;52.578;13.426;2023-12-22T10:00:11;25.57;;;5.17;;
4756;SDS011;2392;52.578;13.426;2023-12-22T10:02:40;26.33;;;5.13;;
4756;SDS011;2392;52.578;13.426;2023-12-22T10:05:10;22.60;;;4.57;;
4756;SDS011;2392;52.578;13.426;2023-12-22T10:07:38;26.43;;;5.40;;
4756;SDS011;2392;52.578;13.426;2023-12-22T10:10:05;21.43;;;5.13;;
4756;SDS011;2392;52.578;13.426;2023-12-22T10:12:34;20.57;;;4.53;;
4756;SDS011;2392;52.578;13.426;2023-12-22T10:15:05;24.33;;;5.30;;
4756;SDS011;2392;52.578;13.426;2023-12-22T10:17:34;31.97;;;4.70;;
4756;SDS011;2392;52.578;13.426;2023-12-22T10:20:01;24.30;;;4.90;;
4756;SDS011;2392;52.578;13.426;2023-12-22T10:22:33;20.07;;;5.40;;
4756;SDS011;2392;52.578;13.426;2023-12-22T10:24:59;28.90;;;5.83;;
4756;SDS011;2392;52.578;13.426;2023-12-22T10:27:30;23.03;;;5.23;;
4756;SDS011;2392;52.578;13.426;2023-12-22T10:29:57;29.83;;;5.33;;
4756;SDS011;2392;52.578;13.426;2023-12-22T10:32:25;24.40;;;4.57;;
4756;SDS011;2392;52.578;13.426;2023-12-22T10:34:55;27.47;;;5.50;;
4756;SDS011;2392;52.578;13.426;2023-12-22T10:37:22;24.70;;;6.70;;
4756;SDS011;2392;52.578;13.426;2023-12-22T10:39:53;25.33;;;4.60;;
4756;SDS011;2392;52.578;13.426;2023-12-22T10:42:23;25.10;;;5.03;;
4756;SDS011;2392;52.578;13.426;2023-12-22T10:44:50;22.73;;;5.10;;
4756;SDS011;2392;52.578;13.426;2023-12-22T10:47:18;24.67;;;5.20;;
4756;SDS011;2392;52.578;13.426;2023-12-22T10:49:46;32.50;;;5.23;;
4756;SDS011;2392;52.578;13.426;2023-12-22T10:52:15;31.20;;;5.60;;
4756;SDS011;2392;52.578;13.426;2023-12-22T10:54:43;25.67;;;4.70;;
4756;SDS011;2392;52.578;13.426;2023-12-22T10:57:11;30.67;;;5.80;;
4756;SDS011;2392;52.578;13.426;2023-12-22T10:59:38;29.83;;;5.37;;
4756;SDS011;2392;52.578;13.426;2023-12-22T11:02:11;21.83;;;4.33;;
4756;SDS011;2392;52.578;13.426;2023-12-22T11:04:41;21.40;;;4.10;;
4756;SDS011;2392;52.578;13.426;2023-12-22T11:07:18;28.03;;;5.07;;
4756;SDS011;2392;52.578;13.426;2023-12-22T11:09:47;21.80;;;4.97;;
4756;SDS011;2392;52.578;13.426;2023-12-22T11:12:18;29.27;;;4.83;;
4756;SDS011;2392;52.578;13.426;2023-12-22T11:14:45;24.27;;;4.83;;
4756;SDS011;2392;52.578;13.426;2023-12-22T11:17:15;24.33;;;4.80;;
4756;SDS011;2392;52.578;13.426;2023-12-22T11:19:45;25.10;;;4.90;;
4756;SDS011;2392;52.578;13.426;2023-12-22T11:22:14;22.13;;;4.70;;
4756;SDS011;2392;52.578;13.426;2023-12-22T11:24:43;28.33;;;5.13;;
4756;SDS011;2392;52.578;13.426;2023-12-22T11:27:12;26.40;;;5.47;;
4756;SDS011;2392;52.578;13.426;2023-12-22T11:29:40;21.63;;;5.00;;
4756;SDS011;2392;52.578;13.426;2023-12-22T11:32:08;22.57;;;4.97;;
4756;SDS011;2392;52.578;13.426;2023-12-22T11:34:36;24.57;;;4.90;;
4756;SDS011;2392;52.578;13.426;2023-12-22T11:37:05;22.00;;;4.57;;
4756;SDS011;2392;52.578;13.426;2023-12-22T11:39:33;26.70;;;5.30;;
4756;SDS011;2392;52.578;13.426;2023-12-22T11:42:00;25.80;;;4.77;;
4756;SDS011;2392;52.578;13.426;2023-12-22T11:44:29;23.40;;;4.27;;
4756;SDS011;2392;52.578;13.426;2023-12-22T11:47:04;23.73;;;5.40;;
4756;SDS011;2392;52.578;13.426;2023-12-22T11:49:32;29.57;;;5.27;;
4756;SDS011;2392;52.578;13.426;2023-12-22T11:51:59;24.40;;;4.20;;
4756;SDS011;2392;52.578;13.426;2023-12-22T11:54:45;21.73;;;4.90;;
4756;SDS011;2392;52.578;13.426;2023-12-22T11:57:28;19.83;;;4.40;;
4756;SDS011;2392;52.578;13.426;2023-12-22T11:59:56;18.73;;;4.40;;
4756;SDS011;2392;52.578;13.426;2023-12-22T12:02:25;24.13;;;5.00;;
4756;SDS011;2392;52.578;13.426;2023-12-22T12:04:52;26.97;;;4.80;;
4756;SDS011;2392;52.578;13.426;2023-12-22T12:07:39;24.60;;;4.57;;
4756;SDS011;2392;52.578;13.426;2023-12-22T12:10:09;24.00;;;4.77;;
4756;SDS011;2392;52.578;13.426;2023-12-22T12:12:37;21.33;;;4.60;;
4756;SDS011;2392;52.578;13.426;2023-12-22T12:15:07;22.70;;;6.20;;
4756;SDS011;2392;52.578;13.426;2023-12-22T12:17:40;22.23;;;4.47;;
4756;SDS011;2392;52.578;13.426;2023-12-22T12:20:08;24.50;;;4.57;;
4756;SDS011;2392;52.578;13.426;2023-12-22T12:22:35;22.47;;;4.60;;
4756;SDS011;2392;52.578;13.426;2023-12-22T12:25:06;24.70;;;5.07;;
4756;SDS011;2392;52.578;13.426;2023-12-22T12:27:35;26.10;;;4.57;;
4756;SDS011;2392;52.578;13.426;2023-12-22T12:30:06;29.17;;;4.90;;
4756;SDS011;2392;52.578;13.426;2023-12-22T12:32:36;25.20;;;4.77;;
4756;SDS011;2392;52.578;13.426;2023-12-22T12:35:05;20.30;;;4.50;;
4756;SDS011;2392;52.578;13.426;2023-12-22T12:37:33;19.80;;;4.70;;
4756;SDS011;2392;52.578;13.426;2023-12-22T12:39:59;21.33;;;4.30;;
4756;SDS011;2392;52.578;13.426;2023-12-22T12:42:30;25.67;;;4.90;;
4756;SDS011;2392;52.578;13.426;2023-12-22T12:44:57;29.10;;;5.67;;
4756;SDS011;2392;52.578;13.426;2023-12-22T12:47:24;25.23;;;5.10;;
4756;SDS011;2392;52.578;13.426;2023-12-22T12:49:57;24.53;;;5.30;;
4756;SDS011;2392;52.578;13.426;2023-12-22T12:52:25;25.13;;;4.60;;
4756;SDS011;2392;52.578;13.426;2023-12-22T12:54:52;23.30;;;5.23;;
4756;SDS011;2392;52.578;13.426;2023-12-22T12:57:20;25.13;;;5.00;;
4756;SDS011;2392;52.578;13.426;2023-12-22T12:59:48;27.57;;;4.87;;
4756;SDS011;2392;52.578;13.426;2023-12-22T13:02:15;22.63;;;4.50;;
4756;SDS011;2392;52.578;13.426;2023-12-22T13:04:42;21.83;;;5.23;;
4756;SDS011;2392;52.578;13.426;2023-12-22T13:07:09;26.20;;;6.10;;
4756;SDS011;2392;52.578;13.426;2023-12-22T13:09:39;20.13;;;5.70;;
4756;SDS011;2392;52.578;13.426;2023-12-22T13:12:07;25.90;;;4.90;;
4756;SDS011;2392;52.578;13.426;2023-12-22T13:14:35;23.20;;;4.67;;
4756;SDS011;2392;52.578;13.426;2023-12-22T13:17:02;20.50;;;4.60;;
4756;SDS011;2392;52.578;13.426;2023-12-22T13:19:29;23.67;;;4.47;;
4756;SDS011;2392;52.578;13.426;2023-12-22T13:21:56;24.83;;;4.73;;
4756;SDS011;2392;52.578;13.426;2023-12-22T13:24:23;29.63;;;4.87;;
4756;SDS011;2392;52.578;13.426;2023-12-22T13:26:59;23.77;;;4.97;;
4756;SDS011;2392;52.578;13.426;2023-12-22T13:29:28;27.30;;;5.20;;
4756;SDS011;2392;52.578;13.426;2023-12-22T13:31:55;20.50;;;4.47;;
4756;SDS011;2392;52.578;13.426;2023-12-22T13:34:22;20.87;;;4.00;;
4756;SDS011;2392;52.578;13.426;2023-12-22T13:36:49;21.80;;;4.37;;
4756;SDS011;2392;52.578;13.426;2023-12-22T13:39:16;21.53;;;4.67;;
4756;SDS011;2392;52.578;13.426;2023-12-22T13:41:43;20.03;;;4.30;;
4756;SDS011;2392;52.578;13.426;2023-12-22T13:44:12;21.50;;;4.63;;
4756;SDS011;2392;52.578;13.426;2023-12-22T13:46:39;25.07;;;4.77;;
4756;SDS011;2392;52.578;13.426;2023-12-22T13:49:08;23.23;;;5.40;;
4756;SDS011;2392;52.578;13.426;2023-12-22T13:51:39;27.57;;;4.83;;
4756;SDS011;2392;52.578;13.426;2023-12-22T13:54:06;24.07;;;5.50;;
4756;SDS011;2392;52.578;13.426;2023-12-22T13:56:33;21.03;;;4.43;;
4756;SDS011;2392;52.578;13.426;2023-12-22T13:59:01;25.63;;;5.47;;
4756;SDS011;2392;52.578;13.426;2023-12-22T14:01:30;28.37;;;4.80;;
4756;SDS011;2392;52.578;13.426;2023-12-22T14:03:57;24.40;;;4.70;;
4756;SDS011;2392;52.578;13.426;2023-12-22T14:06:24;22.27;;;5.10;;
4756;SDS011;2392;52.578;13.426;2023-12-22T14:08:51;20.87;;;4.70;;
4756;SDS011;2392;52.578;13.426;2023-12-22T14:11:18;23.97;;;4.93;;
4756;SDS011;2392;52.578;13.426;2023-12-22T14:13:45;23.03;;;5.20;;
4756;SDS011;2392;52.578;13.426;2023-12-22T14:16:12;23.97;;;5.07;;
4756;SDS011;2392;52.578;13.426;2023-12-22T14:18:41;21.43;;;5.33;;
4756;SDS011;2392;52.578;13.426;2023-12-22T14:21:08;26.77;;;4.93;;
4756;SDS011;2392;52.578;13.426;2023-12-22T14:23:34;28.97;;;6.03;;
4756;SDS011;2392;52.578;13.426;2023-12-22T14:26:01;21.23;;;5.20;;
4756;SDS011;2392;52.578;13.426;2023-12-22T14:28:28;27.47;;;5.20;;
4756;SDS011;2392;52.578;13.426;2023-12-22T14:30:55;25.73;;;4.63;;
4756;SDS011;2392;52.578;13.426;2023-12-22T14:33:21;24.10;;;5.03;;
4756;SDS011;2392;52.578;13.426;2023-12-22T14:35:50;21.30;;;5.03;;
4756;SDS011;2392;52.578;13.426;2023-12-22T14:38:17;23.63;;;4.67;;
4756;SDS011;2392;52.578;13.426;2023-12-22T14:40:43;23.43;;;5.90;;
4756;SDS011;2392;52.578;13.426;2023-12-22T14:43:13;19.90;;;4.90;;
4756;SDS011;2392;52.578;13.426;2023-12-22T14:45:42;21.70;;;4.27;;
4756;SDS011;2392;52.578;13.426;2023-12-22T14:48:11;26.03;;;4.70;;
4756;SDS011;2392;52.578;13.426;2023-12-22T14:50:38;19.63;;;4.20;;
4756;SDS011;2392;52.578;13.426;2023-12-22T14:53:06;17.43;;;4.13;;
4756;SDS011;2392;52.578;13.426;2023-12-22T14:55:32;17.60;;;4.40;;